This is the latest recevied weather packets stored in our database for station/object KROG. If no packets are shown the sender has not sent any weather packets the latest 1 day(s).
| Time | Temp. | Humidity | Pressure | Rain* | Wind** | Luminosity | Snow |
|---|---|---|---|---|---|---|---|
| 1778106222 | 15° C | 51% | 1015.6 hPa | - | - | - | - |
| 1778103818 | 15° C | 54% | 1016.3 hPa | - | - | - | - |
| 1778099020 | 13.89° C | 54% | 1016.9 hPa | - | - | - | - |
| 1778097221 | 12.78° C | 62% | 1017.3 hPa | - | - | - | - |
| 1778094818 | 12.78° C | 62% | 1017.3 hPa | - | - | - | - |
| 1778093620 | 12.78° C | 62% | 1018.3 hPa | - | - | - | - |
| 1778091220 | 12.78° C | 62% | 1018.3 hPa | - | - | - | - |
| 1778088221 | 11.67° C | 58% | 1018.6 hPa | - | - | - | - |
| 1778087622 | 11.67° C | 58% | 1018.6 hPa | - | - | - | - |
| 1778080420 | 8.89° C | 81% | 1017.3 hPa | - | - | - | - |
| 1778079821 | 8.89° C | 81% | 1017.3 hPa | - | - | - | - |
| 1778078620 | 8.89° C | 81% | 1016.9 hPa | - | - | - | - |
| 1778075618 | 7.78° C | 87% | 1016.9 hPa | - | - | - | - |
| 1778073816 | 7.78° C | 87% | 1016.9 hPa | - | - | - | - |
| 1778072620 | 7.78° C | 87% | 1016.9 hPa | - | - | - | - |
| 1778071419 | 7.78° C | 87% | 1016.9 hPa | - | - | - | - |
| 1778069618 | 6.67° C | 93% | 1016.3 hPa | - | - | - | - |
| 1778069017 | 6.67° C | 93% | 1016.3 hPa | - | - | - | - |
| 1778067216 | 6.67° C | 87% | 1015.9 hPa | - | - | - | - |
| 1778066621 | 6.67° C | 87% | 1015.9 hPa | - | - | - | - |
| 1778066020 | 6.67° C | 87% | 1015.9 hPa | - | - | - | - |
| 1778064220 | 7.78° C | 81% | 1014.2 hPa | - | - | - | - |
| 1778063020 | 7.78° C | 81% | 1014.2 hPa | - | - | - | - |
| 1778062418 | 7.78° C | 81% | 1014.2 hPa | - | - | - | - |
| 1778060743 | 7.78° C | 87% | 1013.5 hPa | - | - | - | - |
* Rain since midnight (hover to see other rain measurements)
** Current wind speed in m/s (hover to see current wind gust speed)